sensor_id;sensor_type;location;lat;lon;timestamp;P1;durP1;ratioP1;P2;durP2;ratioP2
317;SDS011;146;53.448;10.228;2022-10-22T00:01:25;10.23;;;9.17;;
317;SDS011;146;53.448;10.228;2022-10-22T00:03:52;11.33;;;10.10;;
317;SDS011;146;53.448;10.228;2022-10-22T00:06:19;11.73;;;10.40;;
317;SDS011;146;53.448;10.228;2022-10-22T00:08:46;12.30;;;10.93;;
317;SDS011;146;53.448;10.228;2022-10-22T00:11:13;12.10;;;10.93;;
317;SDS011;146;53.448;10.228;2022-10-22T00:13:41;12.93;;;10.87;;
317;SDS011;146;53.448;10.228;2022-10-22T00:16:10;14.20;;;10.70;;
317;SDS011;146;53.448;10.228;2022-10-22T00:18:37;13.50;;;11.37;;
317;SDS011;146;53.448;10.228;2022-10-22T00:21:05;11.93;;;10.13;;
317;SDS011;146;53.448;10.228;2022-10-22T00:23:32;18.93;;;10.87;;
317;SDS011;146;53.448;10.228;2022-10-22T00:25:59;13.40;;;10.10;;
317;SDS011;146;53.448;10.228;2022-10-22T00:28:26;12.33;;;11.03;;
317;SDS011;146;53.448;10.228;2022-10-22T00:30:56;12.60;;;9.67;;
317;SDS011;146;53.448;10.228;2022-10-22T00:33:25;10.87;;;9.77;;
317;SDS011;146;53.448;10.228;2022-10-22T00:35:53;11.63;;;10.23;;
317;SDS011;146;53.448;10.228;2022-10-22T00:38:20;10.53;;;9.50;;
317;SDS011;146;53.448;10.228;2022-10-22T00:40:46;14.43;;;10.27;;
317;SDS011;146;53.448;10.228;2022-10-22T00:43:14;14.40;;;11.07;;
317;SDS011;146;53.448;10.228;2022-10-22T00:45:42;14.37;;;11.20;;
317;SDS011;146;53.448;10.228;2022-10-22T00:48:10;13.30;;;11.30;;
317;SDS011;146;53.448;10.228;2022-10-22T00:50:42;10.13;;;8.90;;
317;SDS011;146;53.448;10.228;2022-10-22T00:53:12;11.03;;;9.93;;
317;SDS011;146;53.448;10.228;2022-10-22T00:55:41;13.67;;;10.20;;
317;SDS011;146;53.448;10.228;2022-10-22T00:58:10;10.60;;;9.13;;
317;SDS011;146;53.448;10.228;2022-10-22T01:00:38;11.53;;;10.33;;
317;SDS011;146;53.448;10.228;2022-10-22T01:03:05;12.90;;;10.00;;
317;SDS011;146;53.448;10.228;2022-10-22T01:05:36;11.63;;;10.37;;
317;SDS011;146;53.448;10.228;2022-10-22T01:08:10;12.50;;;10.20;;
317;SDS011;146;53.448;10.228;2022-10-22T01:10:50;12.57;;;9.33;;
317;SDS011;146;53.448;10.228;2022-10-22T01:13:26;12.63;;;10.23;;
317;SDS011;146;53.448;10.228;2022-10-22T01:16:03;12.70;;;11.27;;
317;SDS011;146;53.448;10.228;2022-10-22T01:18:36;10.63;;;9.53;;
317;SDS011;146;53.448;10.228;2022-10-22T01:21:13;9.60;;;8.70;;
317;SDS011;146;53.448;10.228;2022-10-22T01:27:02;12.80;;;10.00;;
317;SDS011;146;53.448;10.228;2022-10-22T01:29:37;10.97;;;9.33;;
317;SDS011;146;53.448;10.228;2022-10-22T01:32:08;10.47;;;9.27;;
317;SDS011;146;53.448;10.228;2022-10-22T01:34:39;10.50;;;9.40;;
317;SDS011;146;53.448;10.228;2022-10-22T01:37:09;15.53;;;10.03;;
317;SDS011;146;53.448;10.228;2022-10-22T01:39:37;14.03;;;10.00;;
317;SDS011;146;53.448;10.228;2022-10-22T01:42:05;10.13;;;8.90;;
317;SDS011;146;53.448;10.228;2022-10-22T01:44:32;12.20;;;10.30;;
317;SDS011;146;53.448;10.228;2022-10-22T01:47:04;10.63;;;8.83;;
317;SDS011;146;53.448;10.228;2022-10-22T01:49:43;12.10;;;10.03;;
317;SDS011;146;53.448;10.228;2022-10-22T01:52:32;11.30;;;10.20;;
317;SDS011;146;53.448;10.228;2022-10-22T01:55:11;9.77;;;8.80;;
317;SDS011;146;53.448;10.228;2022-10-22T01:57:46;11.97;;;9.90;;
317;SDS011;146;53.448;10.228;2022-10-22T02:00:20;10.93;;;9.40;;
317;SDS011;146;53.448;10.228;2022-10-22T02:02:51;11.97;;;10.77;;
317;SDS011;146;53.448;10.228;2022-10-22T02:05:24;12.90;;;9.23;;
317;SDS011;146;53.448;10.228;2022-10-22T02:07:59;10.90;;;8.97;;
317;SDS011;146;53.448;10.228;2022-10-22T02:10:28;11.17;;;8.80;;
317;SDS011;146;53.448;10.228;2022-10-22T02:12:55;9.87;;;8.80;;
317;SDS011;146;53.448;10.228;2022-10-22T02:15:24;11.37;;;8.77;;
317;SDS011;146;53.448;10.228;2022-10-22T02:17:55;12.90;;;9.57;;
317;SDS011;146;53.448;10.228;2022-10-22T02:20:25;11.10;;;10.00;;
317;SDS011;146;53.448;10.228;2022-10-22T02:22:55;9.60;;;8.60;;
317;SDS011;146;53.448;10.228;2022-10-22T02:25:22;10.17;;;8.43;;
317;SDS011;146;53.448;10.228;2022-10-22T02:27:53;10.60;;;9.20;;
317;SDS011;146;53.448;10.228;2022-10-22T02:30:26;9.57;;;8.30;;
317;SDS011;146;53.448;10.228;2022-10-22T02:32:56;10.03;;;8.10;;
317;SDS011;146;53.448;10.228;2022-10-22T02:35:26;8.83;;;7.73;;
317;SDS011;146;53.448;10.228;2022-10-22T02:37:55;8.67;;;7.33;;
317;SDS011;146;53.448;10.228;2022-10-22T02:40:22;28.80;;;9.40;;
317;SDS011;146;53.448;10.228;2022-10-22T02:42:50;13.70;;;8.07;;
317;SDS011;146;53.448;10.228;2022-10-22T02:45:17;8.60;;;7.23;;
317;SDS011;146;53.448;10.228;2022-10-22T02:47:45;10.53;;;8.40;;
317;SDS011;146;53.448;10.228;2022-10-22T02:50:14;11.30;;;8.70;;
317;SDS011;146;53.448;10.228;2022-10-22T02:52:40;9.80;;;8.10;;
317;SDS011;146;53.448;10.228;2022-10-22T02:55:07;8.10;;;7.30;;
317;SDS011;146;53.448;10.228;2022-10-22T02:57:34;9.03;;;8.13;;
317;SDS011;146;53.448;10.228;2022-10-22T03:00:01;8.60;;;7.70;;
317;SDS011;146;53.448;10.228;2022-10-22T03:02:28;8.37;;;7.47;;
317;SDS011;146;53.448;10.228;2022-10-22T03:04:55;10.80;;;8.73;;
317;SDS011;146;53.448;10.228;2022-10-22T03:07:23;11.13;;;7.40;;
317;SDS011;146;53.448;10.228;2022-10-22T03:09:50;17.23;;;8.40;;
317;SDS011;146;53.448;10.228;2022-10-22T03:12:17;12.00;;;6.60;;
317;SDS011;146;53.448;10.228;2022-10-22T03:14:43;8.87;;;6.73;;
317;SDS011;146;53.448;10.228;2022-10-22T03:17:10;9.93;;;6.60;;
317;SDS011;146;53.448;10.228;2022-10-22T03:19:37;8.70;;;6.57;;
317;SDS011;146;53.448;10.228;2022-10-22T03:22:04;7.87;;;6.87;;
317;SDS011;146;53.448;10.228;2022-10-22T03:24:38;71.57;;;12.33;;
317;SDS011;146;53.448;10.228;2022-10-22T03:27:07;26.93;;;10.20;;
317;SDS011;146;53.448;10.228;2022-10-22T03:29:35;9.07;;;6.40;;
317;SDS011;146;53.448;10.228;2022-10-22T03:32:03;7.90;;;7.10;;
317;SDS011;146;53.448;10.228;2022-10-22T03:34:30;7.87;;;7.17;;
317;SDS011;146;53.448;10.228;2022-10-22T03:36:57;8.40;;;7.03;;
317;SDS011;146;53.448;10.228;2022-10-22T03:39:27;11.43;;;8.20;;
317;SDS011;146;53.448;10.228;2022-10-22T03:41:57;11.50;;;7.20;;
317;SDS011;146;53.448;10.228;2022-10-22T03:44:24;8.60;;;7.77;;
317;SDS011;146;53.448;10.228;2022-10-22T03:46:52;8.77;;;7.83;;
317;SDS011;146;53.448;10.228;2022-10-22T03:49:19;8.60;;;7.70;;
317;SDS011;146;53.448;10.228;2022-10-22T03:51:46;12.87;;;7.10;;
317;SDS011;146;53.448;10.228;2022-10-22T03:54:14;8.27;;;7.37;;
317;SDS011;146;53.448;10.228;2022-10-22T03:56:41;9.77;;;7.00;;
317;SDS011;146;53.448;10.228;2022-10-22T03:59:09;7.30;;;6.60;;
317;SDS011;146;53.448;10.228;2022-10-22T04:01:37;6.30;;;5.70;;
317;SDS011;146;53.448;10.228;2022-10-22T04:04:04;17.63;;;7.10;;
317;SDS011;146;53.448;10.228;2022-10-22T04:06:30;47.57;;;9.07;;
317;SDS011;146;53.448;10.228;2022-10-22T04:08:57;60.93;;;9.43;;
317;SDS011;146;53.448;10.228;2022-10-22T04:11:28;11.40;;;6.90;;
317;SDS011;146;53.448;10.228;2022-10-22T04:13:54;78.17;;;12.23;;
317;SDS011;146;53.448;10.228;2022-10-22T04:16:22;23.13;;;7.33;;
317;SDS011;146;53.448;10.228;2022-10-22T04:18:54;8.50;;;4.67;;
317;SDS011;146;53.448;10.228;2022-10-22T04:21:21;6.30;;;5.80;;
317;SDS011;146;53.448;10.228;2022-10-22T04:23:49;5.70;;;5.20;;
317;SDS011;146;53.448;10.228;2022-10-22T04:26:17;6.97;;;6.10;;
317;SDS011;146;53.448;10.228;2022-10-22T04:28:45;8.07;;;6.57;;
317;SDS011;146;53.448;10.228;2022-10-22T04:31:14;33.03;;;9.30;;
317;SDS011;146;53.448;10.228;2022-10-22T04:33:46;12.47;;;6.83;;
317;SDS011;146;53.448;10.228;2022-10-22T04:36:14;20.37;;;7.03;;
317;SDS011;146;53.448;10.228;2022-10-22T04:38:42;13.33;;;6.50;;
317;SDS011;146;53.448;10.228;2022-10-22T04:41:11;5.77;;;5.27;;
317;SDS011;146;53.448;10.228;2022-10-22T04:43:41;23.33;;;7.30;;
317;SDS011;146;53.448;10.228;2022-10-22T04:46:08;12.83;;;5.03;;
317;SDS011;146;53.448;10.228;2022-10-22T04:48:36;5.30;;;4.90;;
317;SDS011;146;53.448;10.228;2022-10-22T04:51:05;9.13;;;6.10;;
317;SDS011;146;53.448;10.228;2022-10-22T04:53:33;8.43;;;5.50;;
317;SDS011;146;53.448;10.228;2022-10-22T04:56:07;9.23;;;5.60;;
317;SDS011;146;53.448;10.228;2022-10-22T04:58:35;6.63;;;5.37;;
317;SDS011;146;53.448;10.228;2022-10-22T05:01:08;11.80;;;5.90;;
317;SDS011;146;53.448;10.228;2022-10-22T05:03:35;6.83;;;5.70;;
317;SDS011;146;53.448;10.228;2022-10-22T05:06:02;6.73;;;5.03;;
317;SDS011;146;53.448;10.228;2022-10-22T05:08:30;6.50;;;5.70;;
317;SDS011;146;53.448;10.228;2022-10-22T05:10:57;7.17;;;5.77;;
317;SDS011;146;53.448;10.228;2022-10-22T05:13:24;5.83;;;5.33;;
317;SDS011;146;53.448;10.228;2022-10-22T05:15:51;5.00;;;4.50;;
317;SDS011;146;53.448;10.228;2022-10-22T05:18:18;5.17;;;4.67;;
317;SDS011;146;53.448;10.228;2022-10-22T05:20:45;8.87;;;5.37;;
317;SDS011;146;53.448;10.228;2022-10-22T05:23:11;6.57;;;4.40;;
317;SDS011;146;53.448;10.228;2022-10-22T05:25:39;4.73;;;4.33;;
317;SDS011;146;53.448;10.228;2022-10-22T05:28:06;4.40;;;4.10;;
317;SDS011;146;53.448;10.228;2022-10-22T05:30:33;5.57;;;4.50;;
317;SDS011;146;53.448;10.228;2022-10-22T05:32:59;7.77;;;4.13;;
317;SDS011;146;53.448;10.228;2022-10-22T05:35:26;12.60;;;5.80;;
317;SDS011;146;53.448;10.228;2022-10-22T05:37:53;4.70;;;4.30;;
317;SDS011;146;53.448;10.228;2022-10-22T05:40:20;5.57;;;5.07;;
317;SDS011;146;53.448;10.228;2022-10-22T05:42:48;5.60;;;5.10;;
317;SDS011;146;53.448;10.228;2022-10-22T05:45:15;18.53;;;6.90;;
317;SDS011;146;53.448;10.228;2022-10-22T05:47:41;5.70;;;5.20;;
317;SDS011;146;53.448;10.228;2022-10-22T05:50:08;6.60;;;5.23;;
317;SDS011;146;53.448;10.228;2022-10-22T05:52:35;6.07;;;5.47;;
317;SDS011;146;53.448;10.228;2022-10-22T05:55:01;8.57;;;6.43;;
317;SDS011;146;53.448;10.228;2022-10-22T05:57:28;7.30;;;6.40;;
317;SDS011;146;53.448;10.228;2022-10-22T05:59:56;6.20;;;5.70;;
317;SDS011;146;53.448;10.228;2022-10-22T06:02:23;6.33;;;5.83;;
317;SDS011;146;53.448;10.228;2022-10-22T06:04:50;7.20;;;6.50;;
317;SDS011;146;53.448;10.228;2022-10-22T06:07:16;8.10;;;7.30;;
317;SDS011;146;53.448;10.228;2022-10-22T06:09:43;7.67;;;6.50;;
317;SDS011;146;53.448;10.228;2022-10-22T06:12:11;6.47;;;5.87;;
317;SDS011;146;53.448;10.228;2022-10-22T06:14:38;6.80;;;6.20;;
317;SDS011;146;53.448;10.228;2022-10-22T06:17:06;6.30;;;5.80;;
317;SDS011;146;53.448;10.228;2022-10-22T06:19:34;5.70;;;5.10;;
317;SDS011;146;53.448;10.228;2022-10-22T06:22:00;5.63;;;5.20;;
317;SDS011;146;53.448;10.228;2022-10-22T06:24:28;8.33;;;5.60;;
317;SDS011;146;53.448;10.228;2022-10-22T06:26:55;5.73;;;5.23;;
317;SDS011;146;53.448;10.228;2022-10-22T06:29:21;5.17;;;4.80;;
317;SDS011;146;53.448;10.228;2022-10-22T06:31:49;6.70;;;6.20;;
317;SDS011;146;53.448;10.228;2022-10-22T06:34:17;6.13;;;5.53;;
317;SDS011;146;53.448;10.228;2022-10-22T06:36:44;6.47;;;5.87;;
317;SDS011;146;53.448;10.228;2022-10-22T06:39:12;6.70;;;6.10;;
317;SDS011;146;53.448;10.228;2022-10-22T06:41:40;6.40;;;5.90;;
317;SDS011;146;53.448;10.228;2022-10-22T06:44:06;7.00;;;6.30;;
317;SDS011;146;53.448;10.228;2022-10-22T06:46:38;6.47;;;5.90;;
317;SDS011;146;53.448;10.228;2022-10-22T06:49:05;6.77;;;6.17;;
317;SDS011;146;53.448;10.228;2022-10-22T06:51:33;6.47;;;5.87;;
317;SDS011;146;53.448;10.228;2022-10-22T06:54:00;7.63;;;6.93;;
317;SDS011;146;53.448;10.228;2022-10-22T06:56:27;6.60;;;5.90;;
317;SDS011;146;53.448;10.228;2022-10-22T06:58:55;6.57;;;5.97;;
317;SDS011;146;53.448;10.228;2022-10-22T07:01:23;7.20;;;6.33;;
317;SDS011;146;53.448;10.228;2022-10-22T07:03:51;6.97;;;6.27;;
317;SDS011;146;53.448;10.228;2022-10-22T07:06:18;8.00;;;7.40;;
317;SDS011;146;53.448;10.228;2022-10-22T07:08:48;7.70;;;7.00;;
317;SDS011;146;53.448;10.228;2022-10-22T07:11:15;8.10;;;7.40;;
317;SDS011;146;53.448;10.228;2022-10-22T07:13:43;9.20;;;7.50;;
317;SDS011;146;53.448;10.228;2022-10-22T07:16:11;11.83;;;7.60;;
317;SDS011;146;53.448;10.228;2022-10-22T07:22:19;7.33;;;6.73;;
317;SDS011;146;53.448;10.228;2022-10-22T07:24:47;8.27;;;7.47;;
317;SDS011;146;53.448;10.228;2022-10-22T07:27:14;8.00;;;7.30;;
317;SDS011;146;53.448;10.228;2022-10-22T07:29:41;8.23;;;7.43;;
317;SDS011;146;53.448;10.228;2022-10-22T07:32:08;8.63;;;7.40;;
317;SDS011;146;53.448;10.228;2022-10-22T07:34:35;11.50;;;7.30;;
317;SDS011;146;53.448;10.228;2022-10-22T07:37:01;8.80;;;7.90;;
317;SDS011;146;53.448;10.228;2022-10-22T07:39:28;7.97;;;7.20;;
317;SDS011;146;53.448;10.228;2022-10-22T07:41:56;8.73;;;7.83;;
317;SDS011;146;53.448;10.228;2022-10-22T07:44:23;10.67;;;9.37;;
317;SDS011;146;53.448;10.228;2022-10-22T07:46:49;11.97;;;10.77;;
317;SDS011;146;53.448;10.228;2022-10-22T07:49:17;14.07;;;10.60;;
317;SDS011;146;53.448;10.228;2022-10-22T07:51:43;11.80;;;10.00;;
317;SDS011;146;53.448;10.228;2022-10-22T07:54:10;12.13;;;9.53;;
317;SDS011;146;53.448;10.228;2022-10-22T07:56:37;12.73;;;10.07;;
317;SDS011;146;53.448;10.228;2022-10-22T07:59:05;9.93;;;8.97;;
317;SDS011;146;53.448;10.228;2022-10-22T08:01:31;12.70;;;9.10;;
317;SDS011;146;53.448;10.228;2022-10-22T08:03:58;10.83;;;9.73;;
317;SDS011;146;53.448;10.228;2022-10-22T08:06:25;13.30;;;9.87;;
317;SDS011;146;53.448;10.228;2022-10-22T08:08:52;12.20;;;9.80;;
317;SDS011;146;53.448;10.228;2022-10-22T08:11:18;13.60;;;10.10;;
317;SDS011;146;53.448;10.228;2022-10-22T08:13:45;17.13;;;11.37;;
317;SDS011;146;53.448;10.228;2022-10-22T08:16:13;13.10;;;11.70;;
317;SDS011;146;53.448;10.228;2022-10-22T08:18:40;14.10;;;12.57;;
317;SDS011;146;53.448;10.228;2022-10-22T08:21:07;13.10;;;11.00;;
317;SDS011;146;53.448;10.228;2022-10-22T08:23:34;12.77;;;11.07;;
317;SDS011;146;53.448;10.228;2022-10-22T08:26:00;13.57;;;11.27;;
317;SDS011;146;53.448;10.228;2022-10-22T08:28:28;15.87;;;11.97;;
317;SDS011;146;53.448;10.228;2022-10-22T08:30:56;17.33;;;13.20;;
317;SDS011;146;53.448;10.228;2022-10-22T08:33:25;17.30;;;12.53;;
317;SDS011;146;53.448;10.228;2022-10-22T08:35:51;17.53;;;11.33;;
317;SDS011;146;53.448;10.228;2022-10-22T08:38:18;14.73;;;11.97;;
317;SDS011;146;53.448;10.228;2022-10-22T08:40:46;14.33;;;11.73;;
317;SDS011;146;53.448;10.228;2022-10-22T08:46:09;12.40;;;11.10;;
317;SDS011;146;53.448;10.228;2022-10-22T08:48:54;14.00;;;11.90;;
317;SDS011;146;53.448;10.228;2022-10-22T08:51:23;11.93;;;10.73;;
317;SDS011;146;53.448;10.228;2022-10-22T08:53:56;14.00;;;12.40;;
317;SDS011;146;53.448;10.228;2022-10-22T08:56:40;16.17;;;12.30;;
317;SDS011;146;53.448;10.228;2022-10-22T08:59:10;17.90;;;11.00;;
317;SDS011;146;53.448;10.228;2022-10-22T09:01:46;14.40;;;12.90;;
317;SDS011;146;53.448;10.228;2022-10-22T09:04:17;13.00;;;11.33;;
317;SDS011;146;53.448;10.228;2022-10-22T09:06:49;13.73;;;10.10;;
317;SDS011;146;53.448;10.228;2022-10-22T09:09:18;13.10;;;11.43;;
317;SDS011;146;53.448;10.228;2022-10-22T09:11:46;14.03;;;11.27;;
317;SDS011;146;53.448;10.228;2022-10-22T09:14:14;14.57;;;12.30;;
317;SDS011;146;53.448;10.228;2022-10-22T09:16:48;12.53;;;10.83;;
317;SDS011;146;53.448;10.228;2022-10-22T09:19:31;9.60;;;8.67;;
317;SDS011;146;53.448;10.228;2022-10-22T09:22:07;12.67;;;10.40;;
317;SDS011;146;53.448;10.228;2022-10-22T09:24:44;13.43;;;10.37;;
317;SDS011;146;53.448;10.228;2022-10-22T09:27:13;14.80;;;10.30;;
317;SDS011;146;53.448;10.228;2022-10-22T09:29:41;11.67;;;9.27;;
317;SDS011;146;53.448;10.228;2022-10-22T09:32:09;10.47;;;9.40;;
317;SDS011;146;53.448;10.228;2022-10-22T09:34:37;11.87;;;10.30;;
317;SDS011;146;53.448;10.228;2022-10-22T09:37:05;11.40;;;9.20;;
317;SDS011;146;53.448;10.228;2022-10-22T09:39:33;11.83;;;10.07;;
317;SDS011;146;53.448;10.228;2022-10-22T09:42:02;10.70;;;7.77;;
317;SDS011;146;53.448;10.228;2022-10-22T09:44:30;10.40;;;8.13;;
317;SDS011;146;53.448;10.228;2022-10-22T09:46:58;10.67;;;8.50;;
317;SDS011;146;53.448;10.228;2022-10-22T09:49:25;9.73;;;8.73;;
317;SDS011;146;53.448;10.228;2022-10-22T09:51:59;9.93;;;8.50;;
317;SDS011;146;53.448;10.228;2022-10-22T09:54:36;8.20;;;7.40;;
317;SDS011;146;53.448;10.228;2022-10-22T09:57:05;9.57;;;7.53;;
317;SDS011;146;53.448;10.228;2022-10-22T09:59:41;10.50;;;7.53;;
317;SDS011;146;53.448;10.228;2022-10-22T10:02:10;7.87;;;7.03;;
317;SDS011;146;53.448;10.228;2022-10-22T10:04:39;9.50;;;7.60;;
317;SDS011;146;53.448;10.228;2022-10-22T10:07:15;7.60;;;6.90;;
317;SDS011;146;53.448;10.228;2022-10-22T10:09:44;8.00;;;7.20;;
317;SDS011;146;53.448;10.228;2022-10-22T10:12:15;8.00;;;7.00;;
317;SDS011;146;53.448;10.228;2022-10-22T10:22:20;6.30;;;5.70;;
317;SDS011;146;53.448;10.228;2022-10-22T10:25:02;6.27;;;5.67;;
317;SDS011;146;53.448;10.228;2022-10-22T10:27:50;5.90;;;5.40;;
317;SDS011;146;53.448;10.228;2022-10-22T10:30:22;9.13;;;5.80;;
317;SDS011;146;53.448;10.228;2022-10-22T10:33:04;5.90;;;5.40;;
317;SDS011;146;53.448;10.228;2022-10-22T10:35:45;5.00;;;4.60;;
317;SDS011;146;53.448;10.228;2022-10-22T10:41:18;7.00;;;4.70;;
317;SDS011;146;53.448;10.228;2022-10-22T10:43:57;5.17;;;4.67;;
317;SDS011;146;53.448;10.228;2022-10-22T10:46:40;5.97;;;3.63;;
317;SDS011;146;53.448;10.228;2022-10-22T10:49:15;6.43;;;4.70;;
317;SDS011;146;53.448;10.228;2022-10-22T10:51:47;4.40;;;4.00;;
317;SDS011;146;53.448;10.228;2022-10-22T10:54:23;5.37;;;4.13;;
317;SDS011;146;53.448;10.228;2022-10-22T10:56:56;4.97;;;4.23;;
317;SDS011;146;53.448;10.228;2022-10-22T10:59:30;4.07;;;3.73;;
317;SDS011;146;53.448;10.228;2022-10-22T11:02:29;6.80;;;4.23;;
317;SDS011;146;53.448;10.228;2022-10-22T11:05:23;5.37;;;3.80;;
317;SDS011;146;53.448;10.228;2022-10-22T11:07:56;4.67;;;3.30;;
317;SDS011;146;53.448;10.228;2022-10-22T11:10:29;4.80;;;3.60;;
317;SDS011;146;53.448;10.228;2022-10-22T11:13:01;2.83;;;2.60;;
317;SDS011;146;53.448;10.228;2022-10-22T11:15:34;3.10;;;2.80;;
317;SDS011;146;53.448;10.228;2022-10-22T11:18:07;5.30;;;3.53;;
317;SDS011;146;53.448;10.228;2022-10-22T11:20:43;4.43;;;4.03;;
317;SDS011;146;53.448;10.228;2022-10-22T11:23:16;3.37;;;3.00;;
317;SDS011;146;53.448;10.228;2022-10-22T11:25:49;12.30;;;3.30;;
317;SDS011;146;53.448;10.228;2022-10-22T11:28:17;4.60;;;3.10;;
317;SDS011;146;53.448;10.228;2022-10-22T11:30:52;4.33;;;3.27;;
317;SDS011;146;53.448;10.228;2022-10-22T11:33:25;5.83;;;3.60;;
317;SDS011;146;53.448;10.228;2022-10-22T11:35:58;3.47;;;3.17;;
317;SDS011;146;53.448;10.228;2022-10-22T11:38:28;5.83;;;3.20;;
317;SDS011;146;53.448;10.228;2022-10-22T11:40:59;5.40;;;3.20;;
317;SDS011;146;53.448;10.228;2022-10-22T11:43:30;3.00;;;2.80;;
317;SDS011;146;53.448;10.228;2022-10-22T11:46:24;4.90;;;2.97;;
317;SDS011;146;53.448;10.228;2022-10-22T11:49:02;5.17;;;2.83;;
317;SDS011;146;53.448;10.228;2022-10-22T11:51:33;6.87;;;3.23;;
317;SDS011;146;53.448;10.228;2022-10-22T11:57:20;5.00;;;3.47;;
317;SDS011;146;53.448;10.228;2022-10-22T11:59:52;3.60;;;3.30;;
317;SDS011;146;53.448;10.228;2022-10-22T12:02:37;5.97;;;3.23;;
317;SDS011;146;53.448;10.228;2022-10-22T12:05:18;2.93;;;2.70;;
317;SDS011;146;53.448;10.228;2022-10-22T12:08:16;4.80;;;2.47;;
317;SDS011;146;53.448;10.228;2022-10-22T12:10:49;4.70;;;2.90;;
317;SDS011;146;53.448;10.228;2022-10-22T12:13:27;3.23;;;2.47;;
317;SDS011;146;53.448;10.228;2022-10-22T12:15:56;4.33;;;2.63;;
317;SDS011;146;53.448;10.228;2022-10-22T12:18:25;2.97;;;2.60;;
317;SDS011;146;53.448;10.228;2022-10-22T12:20:56;4.60;;;3.17;;
317;SDS011;146;53.448;10.228;2022-10-22T12:23:25;7.00;;;3.17;;
317;SDS011;146;53.448;10.228;2022-10-22T12:25:55;2.57;;;2.27;;
317;SDS011;146;53.448;10.228;2022-10-22T12:28:22;4.87;;;3.53;;
317;SDS011;146;53.448;10.228;2022-10-22T12:31:01;2.70;;;2.50;;
317;SDS011;146;53.448;10.228;2022-10-22T12:33:28;3.40;;;3.10;;
317;SDS011;146;53.448;10.228;2022-10-22T12:35:57;3.63;;;3.03;;
317;SDS011;146;53.448;10.228;2022-10-22T12:38:28;3.40;;;3.10;;
317;SDS011;146;53.448;10.228;2022-10-22T12:40:55;3.43;;;3.13;;
317;SDS011;146;53.448;10.228;2022-10-22T12:43:23;3.40;;;3.20;;
317;SDS011;146;53.448;10.228;2022-10-22T12:45:53;10.57;;;4.00;;
317;SDS011;146;53.448;10.228;2022-10-22T12:48:22;6.00;;;5.40;;
317;SDS011;146;53.448;10.228;2022-10-22T12:50:51;5.07;;;4.57;;
317;SDS011;146;53.448;10.228;2022-10-22T12:53:20;5.13;;;4.73;;
317;SDS011;146;53.448;10.228;2022-10-22T12:55:50;7.17;;;5.00;;
317;SDS011;146;53.448;10.228;2022-10-22T12:58:19;5.17;;;4.77;;
317;SDS011;146;53.448;10.228;2022-10-22T13:00:48;4.60;;;4.30;;
317;SDS011;146;53.448;10.228;2022-10-22T13:03:27;4.90;;;4.40;;
317;SDS011;146;53.448;10.228;2022-10-22T13:06:09;5.13;;;4.73;;
317;SDS011;146;53.448;10.228;2022-10-22T13:08:37;5.40;;;4.70;;
317;SDS011;146;53.448;10.228;2022-10-22T13:11:05;5.40;;;5.00;;
317;SDS011;146;53.448;10.228;2022-10-22T13:13:40;5.77;;;5.20;;
317;SDS011;146;53.448;10.228;2022-10-22T13:16:21;5.63;;;5.10;;
317;SDS011;146;53.448;10.228;2022-10-22T13:18:50;5.00;;;4.70;;
317;SDS011;146;53.448;10.228;2022-10-22T13:21:22;5.60;;;5.30;;
317;SDS011;146;53.448;10.228;2022-10-22T13:23:52;5.87;;;5.00;;
317;SDS011;146;53.448;10.228;2022-10-22T13:26:21;5.40;;;5.00;;
317;SDS011;146;53.448;10.228;2022-10-22T13:28:50;4.77;;;4.40;;
317;SDS011;146;53.448;10.228;2022-10-22T13:31:21;5.80;;;5.30;;
317;SDS011;146;53.448;10.228;2022-10-22T13:33:50;5.63;;;4.53;;
317;SDS011;146;53.448;10.228;2022-10-22T13:36:19;4.43;;;4.17;;
317;SDS011;146;53.448;10.228;2022-10-22T13:38:47;5.10;;;4.60;;
317;SDS011;146;53.448;10.228;2022-10-22T13:41:17;4.60;;;4.30;;
317;SDS011;146;53.448;10.228;2022-10-22T13:43:45;4.97;;;4.57;;
317;SDS011;146;53.448;10.228;2022-10-22T13:46:12;7.33;;;4.83;;
317;SDS011;146;53.448;10.228;2022-10-22T13:48:40;5.23;;;4.70;;
317;SDS011;146;53.448;10.228;2022-10-22T13:51:09;6.90;;;5.10;;
317;SDS011;146;53.448;10.228;2022-10-22T13:53:40;6.80;;;6.20;;
317;SDS011;146;53.448;10.228;2022-10-22T13:56:09;5.97;;;5.37;;
317;SDS011;146;53.448;10.228;2022-10-22T13:58:41;6.63;;;6.13;;
317;SDS011;146;53.448;10.228;2022-10-22T14:01:15;7.83;;;4.10;;
317;SDS011;146;53.448;10.228;2022-10-22T14:03:46;4.50;;;4.10;;
317;SDS011;146;53.448;10.228;2022-10-22T14:06:15;4.50;;;4.03;;
317;SDS011;146;53.448;10.228;2022-10-22T14:08:44;4.10;;;3.80;;
317;SDS011;146;53.448;10.228;2022-10-22T14:11:14;4.93;;;4.43;;
317;SDS011;146;53.448;10.228;2022-10-22T14:13:41;4.10;;;3.80;;
317;SDS011;146;53.448;10.228;2022-10-22T14:16:12;4.90;;;4.50;;
317;SDS011;146;53.448;10.228;2022-10-22T14:18:42;4.77;;;3.63;;
317;SDS011;146;53.448;10.228;2022-10-22T14:21:11;3.93;;;3.63;;
317;SDS011;146;53.448;10.228;2022-10-22T14:23:40;4.07;;;3.63;;
317;SDS011;146;53.448;10.228;2022-10-22T14:26:08;4.37;;;4.07;;
317;SDS011;146;53.448;10.228;2022-10-22T14:28:44;4.03;;;3.77;;
317;SDS011;146;53.448;10.228;2022-10-22T14:31:11;3.93;;;3.63;;
317;SDS011;146;53.448;10.228;2022-10-22T14:33:38;3.50;;;3.20;;
317;SDS011;146;53.448;10.228;2022-10-22T14:36:06;4.27;;;3.67;;
317;SDS011;146;53.448;10.228;2022-10-22T14:38:35;4.87;;;3.47;;
317;SDS011;146;53.448;10.228;2022-10-22T14:41:04;5.70;;;3.73;;
317;SDS011;146;53.448;10.228;2022-10-22T14:43:39;3.80;;;3.43;;
317;SDS011;146;53.448;10.228;2022-10-22T14:46:07;4.47;;;4.00;;
317;SDS011;146;53.448;10.228;2022-10-22T14:48:36;3.40;;;3.10;;
317;SDS011;146;53.448;10.228;2022-10-22T14:51:02;4.63;;;3.30;;
317;SDS011;146;53.448;10.228;2022-10-22T14:53:29;4.93;;;3.80;;
317;SDS011;146;53.448;10.228;2022-10-22T14:55:57;2.90;;;2.70;;
317;SDS011;146;53.448;10.228;2022-10-22T14:58:25;5.80;;;3.40;;
317;SDS011;146;53.448;10.228;2022-10-22T15:00:52;7.70;;;3.63;;
317;SDS011;146;53.448;10.228;2022-10-22T15:03:18;5.77;;;3.60;;
317;SDS011;146;53.448;10.228;2022-10-22T15:05:45;5.30;;;3.10;;
317;SDS011;146;53.448;10.228;2022-10-22T15:08:17;3.70;;;2.97;;
317;SDS011;146;53.448;10.228;2022-10-22T15:10:45;3.67;;;3.33;;
317;SDS011;146;53.448;10.228;2022-10-22T15:13:23;4.60;;;3.13;;
317;SDS011;146;53.448;10.228;2022-10-22T15:15:49;7.40;;;3.47;;
317;SDS011;146;53.448;10.228;2022-10-22T15:18:16;3.63;;;3.30;;
317;SDS011;146;53.448;10.228;2022-10-22T15:20:43;3.60;;;3.30;;
317;SDS011;146;53.448;10.228;2022-10-22T15:23:10;3.47;;;3.17;;
317;SDS011;146;53.448;10.228;2022-10-22T15:25:37;2.87;;;2.67;;
317;SDS011;146;53.448;10.228;2022-10-22T15:28:08;3.17;;;2.90;;
317;SDS011;146;53.448;10.228;2022-10-22T15:30:36;7.00;;;2.83;;
317;SDS011;146;53.448;10.228;2022-10-22T15:33:02;3.60;;;3.40;;
317;SDS011;146;53.448;10.228;2022-10-22T15:35:29;5.70;;;3.80;;
317;SDS011;146;53.448;10.228;2022-10-22T15:37:56;3.40;;;3.10;;
317;SDS011;146;53.448;10.228;2022-10-22T15:40:23;6.57;;;3.47;;
317;SDS011;146;53.448;10.228;2022-10-22T15:42:49;3.40;;;3.07;;
317;SDS011;146;53.448;10.228;2022-10-22T15:45:16;3.47;;;2.83;;
317;SDS011;146;53.448;10.228;2022-10-22T15:47:46;3.70;;;3.50;;
317;SDS011;146;53.448;10.228;2022-10-22T15:50:14;3.27;;;3.07;;
317;SDS011;146;53.448;10.228;2022-10-22T15:52:41;4.73;;;3.90;;
317;SDS011;146;53.448;10.228;2022-10-22T15:55:10;3.80;;;3.50;;
317;SDS011;146;53.448;10.228;2022-10-22T15:57:37;4.37;;;4.07;;
317;SDS011;146;53.448;10.228;2022-10-22T16:00:04;4.00;;;3.60;;
317;SDS011;146;53.448;10.228;2022-10-22T16:02:32;5.83;;;3.83;;